createdAt,value
2019-04-03T00:00:12.996Z,9.80
2019-04-03T00:02:41.656Z,9.80
2019-04-03T00:05:10.284Z,9.60
2019-04-03T00:07:38.715Z,9.60
2019-04-03T00:10:08.552Z,9.50
2019-04-03T00:12:37.397Z,9.50
2019-04-03T00:15:07.512Z,9.50
2019-04-03T00:17:35.943Z,9.50
2019-04-03T00:20:06.968Z,9.40
2019-04-03T00:22:37.002Z,9.40
2019-04-03T00:25:07.558Z,9.40
2019-04-03T00:27:35.980Z,9.40
2019-04-03T00:30:07.174Z,9.30
2019-04-03T00:32:35.953Z,9.30
2019-04-03T00:35:07.691Z,9.30
2019-04-03T00:37:36.263Z,9.20
2019-04-03T00:40:06.777Z,9.20
2019-04-03T00:42:35.281Z,9.20
2019-04-03T00:45:05.773Z,9.20
2019-04-03T00:47:34.420Z,9.20
2019-04-03T00:50:02.965Z,9.20
2019-04-03T00:52:31.393Z,9.20
2019-04-03T00:54:59.836Z,9.20
2019-04-03T00:57:28.271Z,9.20
2019-04-03T00:59:56.981Z,9.20
2019-04-03T01:02:27.942Z,9.20
2019-04-03T01:04:58.011Z,9.30
2019-04-03T01:07:25.920Z,9.30
2019-04-03T01:09:54.445Z,9.20
2019-04-03T01:12:23.010Z,9.10
2019-04-03T01:17:19.663Z,9.20
2019-04-03T01:19:48.134Z,9.30
2019-04-03T01:22:16.639Z,9.20
2019-04-03T01:27:13.181Z,9.20
2019-04-03T01:29:42.955Z,9.10
2019-04-03T01:32:11.735Z,9.10
2019-04-03T01:34:40.163Z,9.20
2019-04-03T01:37:08.698Z,9.20
2019-04-03T01:39:37.143Z,9.00
2019-04-03T01:42:05.671Z,9.10
2019-04-03T01:44:34.097Z,9.00
2019-04-03T01:47:02.543Z,9.10
2019-04-03T01:49:31.036Z,9.00
2019-04-03T01:52:00.834Z,9.00
2019-04-03T01:56:57.744Z,8.90
2019-04-03T01:59:26.260Z,8.90
2019-04-03T02:01:54.692Z,8.90
2019-04-03T02:06:51.402Z,8.80
2019-04-03T02:11:49.364Z,8.80
2019-04-03T02:14:18.136Z,8.80
2019-04-03T02:16:46.607Z,8.80
2019-04-03T02:21:43.471Z,8.80
2019-04-03T02:24:11.914Z,8.80
2019-04-03T02:26:40.344Z,8.80
2019-04-03T02:29:09.325Z,8.70
2019-04-03T02:31:37.903Z,8.80
2019-04-03T02:36:34.440Z,8.80
2019-04-03T02:41:31.328Z,8.80
2019-04-03T02:43:59.758Z,8.80
2019-04-03T02:48:57.936Z,8.90
2019-04-03T02:53:57.224Z,8.80
2019-04-03T02:56:25.688Z,8.80
2019-04-03T02:58:55.212Z,8.90
2019-04-03T03:01:24.192Z,8.80
2019-04-03T03:03:52.632Z,8.80
2019-04-03T03:06:21.128Z,8.80
2019-04-03T03:11:23.263Z,8.80
2019-04-03T03:13:51.148Z,8.80
2019-04-03T03:16:19.859Z,8.80
2019-04-03T03:18:48.344Z,8.80
2019-04-03T03:21:18.935Z,8.80
2019-04-03T03:23:48.749Z,8.80
2019-04-03T03:26:18.061Z,8.70
2019-04-03T03:33:45.392Z,8.80
2019-04-03T03:36:19.602Z,8.80
2019-04-03T03:38:45.117Z,8.70
2019-04-03T03:41:14.472Z,8.70
2019-04-03T03:43:44.553Z,8.70
2019-04-03T03:46:13.642Z,8.70
2019-04-03T03:48:44.756Z,8.80
2019-04-03T03:51:14.300Z,8.70
2019-04-03T03:53:45.455Z,8.70
2019-04-03T03:56:14.132Z,8.70
2019-04-03T04:01:13.097Z,8.70
2019-04-03T04:03:42.328Z,8.70
2019-04-03T04:06:11.852Z,8.70
2019-04-03T04:08:43.494Z,8.70
2019-04-03T04:11:12.346Z,8.70
2019-04-03T04:13:41.323Z,8.70
2019-04-03T04:16:09.734Z,8.70
2019-04-03T04:18:38.651Z,8.70
2019-04-03T04:21:09.578Z,8.70
2019-04-03T04:23:37.535Z,8.60
2019-04-03T04:26:06.808Z,8.60
2019-04-03T04:28:39.210Z,8.60
2019-04-03T04:31:06.730Z,8.60
2019-04-03T04:36:03.327Z,8.60
2019-04-03T04:41:01.851Z,8.50
2019-04-03T04:43:30.129Z,8.50
2019-04-03T04:46:00.276Z,8.50
2019-04-03T04:48:28.871Z,8.50
2019-04-03T04:50:57.610Z,8.50
2019-04-03T04:53:26.047Z,8.40
2019-04-03T04:55:54.545Z,8.40
2019-04-03T05:00:53.274Z,8.30
2019-04-03T05:03:21.888Z,8.30
2019-04-03T05:05:50.851Z,8.20
2019-04-03T05:08:19.312Z,8.20
2019-04-03T05:13:17.861Z,8.10
2019-04-03T05:15:46.368Z,8.10
2019-04-03T05:18:14.886Z,8.10
2019-04-03T05:20:43.317Z,8.10
2019-04-03T05:23:11.848Z,8.00
2019-04-03T05:25:40.632Z,8.00
2019-04-03T05:28:09.091Z,8.00
2019-04-03T05:33:06.803Z,8.00
2019-04-03T05:38:05.421Z,8.00
2019-04-03T05:40:33.964Z,8.00
2019-04-03T05:43:02.448Z,8.00
2019-04-03T05:47:59.065Z,8.00
2019-04-03T05:50:27.503Z,8.00
2019-04-03T05:52:55.988Z,8.00
2019-04-03T05:57:52.900Z,8.00
2019-04-03T06:00:23.403Z,8.10
2019-04-03T06:02:53.136Z,8.00
2019-04-03T06:05:22.401Z,8.00
2019-04-03T06:10:19.275Z,7.90
2019-04-03T06:12:47.851Z,7.80
2019-04-03T06:15:17.310Z,7.80
2019-04-03T06:17:45.794Z,7.80
2019-04-03T06:20:14.490Z,7.80
2019-04-03T06:22:43.191Z,7.70
2019-04-03T06:25:13.739Z,7.70
2019-04-03T06:30:12.930Z,7.80
2019-04-03T06:32:41.360Z,7.80
2019-04-03T06:35:09.959Z,7.80
2019-04-03T06:37:38.465Z,7.80
2019-04-03T06:40:10.098Z,7.80
2019-04-03T06:42:38.772Z,7.90
2019-04-03T06:45:07.444Z,7.80
2019-04-03T06:47:35.908Z,7.90
2019-04-03T06:50:11.868Z,7.80
2019-04-03T06:52:39.428Z,7.90
2019-04-03T06:55:08.012Z,7.90
2019-04-03T06:57:39.070Z,7.90
2019-04-03T07:05:03.388Z,7.90
2019-04-03T07:07:34.561Z,7.90
2019-04-03T07:10:02.322Z,7.90
2019-04-03T07:12:32.386Z,7.90
2019-04-03T07:15:00.917Z,7.90
2019-04-03T07:17:31.402Z,7.90
2019-04-03T07:20:12.072Z,8.00
2019-04-03T07:22:29.820Z,7.90
2019-04-03T07:24:58.245Z,8.00
2019-04-03T07:27:26.750Z,8.00
2019-04-03T07:29:55.188Z,8.00
2019-04-03T07:32:25.843Z,8.00
2019-04-03T07:34:53.873Z,8.10
2019-04-03T07:37:22.816Z,8.00
2019-04-03T07:39:51.302Z,8.10
2019-04-03T07:42:19.783Z,8.10
2019-04-03T07:44:48.347Z,8.30
2019-04-03T07:47:17.151Z,8.30
2019-04-03T07:49:45.687Z,8.30
2019-04-03T07:52:16.262Z,8.30
2019-04-03T07:54:44.374Z,8.50
2019-04-03T07:57:14.605Z,8.50
2019-04-03T07:59:43.066Z,8.50
2019-04-03T08:02:12.836Z,8.40
2019-04-03T08:04:41.796Z,8.30
2019-04-03T08:07:10.234Z,8.20
2019-04-03T08:09:38.700Z,8.40
2019-04-03T08:12:07.719Z,8.30
2019-04-03T08:14:36.238Z,8.30
2019-04-03T08:17:06.131Z,8.30
2019-04-03T08:19:37.163Z,8.30
2019-04-03T08:22:05.588Z,8.30
2019-04-03T08:24:34.015Z,8.40
2019-04-03T08:27:04.087Z,8.60
2019-04-03T08:29:33.244Z,8.70
2019-04-03T08:32:02.745Z,8.70
2019-04-03T08:34:32.170Z,9.20
2019-04-03T08:37:02.041Z,9.10
2019-04-03T08:39:30.857Z,9.30
2019-04-03T08:42:00.892Z,9.60
2019-04-03T08:44:29.374Z,10.10
2019-04-03T08:46:57.835Z,10.10
2019-04-03T08:49:26.700Z,10.10
2019-04-03T08:51:55.305Z,10.40
2019-04-03T08:54:23.929Z,10.50
2019-04-03T08:56:52.459Z,10.90
2019-04-03T08:59:20.878Z,10.80
2019-04-03T09:01:49.403Z,10.80
2019-04-03T09:04:18.057Z,10.80
2019-04-03T09:06:46.638Z,10.90
2019-04-03T09:09:16.537Z,11.10
2019-04-03T09:11:45.067Z,10.90
2019-04-03T09:14:13.504Z,10.80
2019-04-03T09:16:41.980Z,10.80
2019-04-03T09:19:10.929Z,10.90
2019-04-03T09:21:39.448Z,10.80
2019-04-03T09:24:08.246Z,11.00
2019-04-03T09:26:38.106Z,11.10
2019-04-03T09:29:06.857Z,11.10
2019-04-03T09:31:35.363Z,11.10
2019-04-03T09:34:04.293Z,10.90
2019-04-03T09:36:34.755Z,10.50
2019-04-03T09:39:04.747Z,10.50
2019-04-03T09:41:33.292Z,10.60
2019-04-03T09:44:01.727Z,10.60
2019-04-03T09:46:31.504Z,10.60
2019-04-03T09:49:00.441Z,10.70
2019-04-03T09:51:29.119Z,11.00
2019-04-03T09:53:58.110Z,11.10
2019-04-03T09:56:26.959Z,11.10
2019-04-03T09:58:56.661Z,11.40
2019-04-03T10:01:25.423Z,11.50
2019-04-03T10:03:55.397Z,11.80
2019-04-03T10:06:24.265Z,11.90
2019-04-03T10:08:52.855Z,11.90
2019-04-03T10:11:21.428Z,12.00
2019-04-03T10:13:50.171Z,12.00
2019-04-03T10:16:18.617Z,12.20
2019-04-03T10:18:47.204Z,12.40
2019-04-03T10:21:15.851Z,12.40
2019-04-03T10:23:44.519Z,12.70
2019-04-03T10:26:13.220Z,12.70
2019-04-03T10:28:42.897Z,12.30
2019-04-03T10:31:11.722Z,12.20
2019-04-03T10:33:40.368Z,11.90
2019-04-03T10:36:11.447Z,11.60
2019-04-03T10:38:41.733Z,11.30
2019-04-03T10:41:11.467Z,11.30
2019-04-03T10:43:39.816Z,11.50
2019-04-03T10:46:08.267Z,11.50
2019-04-03T10:48:38.037Z,11.60
2019-04-03T10:51:07.074Z,11.60
2019-04-03T10:53:37.044Z,11.60
2019-04-03T10:56:05.982Z,12.00
2019-04-03T10:58:34.836Z,12.00
2019-04-03T11:01:04.991Z,12.10
2019-04-03T11:03:33.430Z,12.40
2019-04-03T11:06:01.965Z,12.20
2019-04-03T11:08:30.547Z,12.00
2019-04-03T11:10:58.996Z,11.90
2019-04-03T11:13:27.420Z,12.00
2019-04-03T11:15:55.873Z,12.10
2019-04-03T11:18:24.314Z,12.30
2019-04-03T11:20:52.792Z,12.50
2019-04-03T11:23:35.728Z,12.20
2019-04-03T11:25:51.541Z,12.10
2019-04-03T11:28:20.677Z,12.00
2019-04-03T11:30:52.112Z,11.80
2019-04-03T11:33:19.412Z,11.80
2019-04-03T11:35:47.935Z,11.80
2019-04-03T11:38:26.214Z,12.10
2019-04-03T11:40:47.776Z,12.60
2019-04-03T11:43:17.067Z,12.90
2019-04-03T11:45:45.882Z,13.00
2019-04-03T11:48:14.928Z,13.60
2019-04-03T11:50:44.560Z,13.70
2019-04-03T11:53:13.063Z,13.60
2019-04-03T11:55:41.938Z,13.80
2019-04-03T11:58:11.406Z,13.80
2019-04-03T12:00:41.626Z,13.70
2019-04-03T12:03:11.412Z,13.60
2019-04-03T12:05:40.456Z,13.00
2019-04-03T12:08:11.917Z,13.00
2019-04-03T12:10:39.515Z,12.70
2019-04-03T12:13:08.123Z,12.60
2019-04-03T12:15:36.888Z,12.50
2019-04-03T12:18:06.114Z,12.40
2019-04-03T12:20:35.066Z,12.40
2019-04-03T12:23:03.905Z,12.50
2019-04-03T12:25:34.313Z,12.50
2019-04-03T12:28:02.594Z,12.50
2019-04-03T12:30:31.483Z,12.50
2019-04-03T12:33:00.235Z,12.50
2019-04-03T12:35:28.793Z,12.50
2019-04-03T12:37:57.257Z,12.50
2019-04-03T12:40:25.886Z,12.50
2019-04-03T12:42:54.441Z,12.40
2019-04-03T12:45:25.750Z,12.40
2019-04-03T12:47:53.372Z,12.50
2019-04-03T12:50:21.969Z,12.70
2019-04-03T12:52:50.620Z,12.70
2019-04-03T12:55:19.713Z,12.60
2019-04-03T12:57:48.358Z,12.80
2019-04-03T13:00:18.159Z,12.80
2019-04-03T13:02:46.912Z,12.70
2019-04-03T13:05:16.663Z,12.60
2019-04-03T13:07:47.231Z,12.60
2019-04-03T13:10:16.987Z,12.50
2019-04-03T13:12:46.260Z,12.30
2019-04-03T13:15:15.026Z,12.30
2019-04-03T13:17:44.380Z,12.20
2019-04-03T13:20:15.624Z,12.20
2019-04-03T13:22:44.115Z,12.20
2019-04-03T13:25:13.279Z,12.20
2019-04-03T13:27:41.833Z,12.10
2019-04-03T13:30:13.093Z,12.10
2019-04-03T13:32:41.937Z,11.90
2019-04-03T13:35:11.313Z,11.70
2019-04-03T13:37:39.761Z,11.70
2019-04-03T13:40:09.271Z,11.90
2019-04-03T13:42:38.007Z,11.80
2019-04-03T13:45:10.547Z,11.80
2019-04-03T13:50:09.988Z,11.90
2019-04-03T13:52:42.309Z,11.90
2019-04-03T13:55:09.627Z,11.90
2019-04-03T13:57:38.613Z,11.80
2019-04-03T14:00:20.232Z,11.80
2019-04-03T14:02:40.197Z,11.80
2019-04-03T14:05:09.792Z,11.80
2019-04-03T14:07:41.623Z,11.80
2019-04-03T14:10:09.958Z,11.80
2019-04-03T14:12:42.950Z,11.70
2019-04-03T14:15:09.678Z,11.80
2019-04-03T14:17:38.533Z,11.90
2019-04-03T14:20:08.388Z,11.90
2019-04-03T14:22:37.301Z,12.00
2019-04-03T14:25:17.959Z,12.00
2019-04-03T14:27:37.314Z,11.80
2019-04-03T14:30:11.065Z,11.80
2019-04-03T14:32:39.999Z,11.80
2019-04-03T14:35:33.672Z,11.80
2019-04-03T14:37:39.795Z,11.80
2019-04-03T14:40:10.991Z,11.70
2019-04-03T14:42:38.810Z,11.60
2019-04-03T14:45:08.070Z,11.60
2019-04-03T14:47:36.770Z,11.60
2019-04-03T14:50:07.213Z,11.50
2019-04-03T14:52:36.363Z,11.50
2019-04-03T14:55:18.434Z,11.50
2019-04-03T14:57:37.546Z,11.50
2019-04-03T15:00:24.630Z,11.50
2019-04-03T15:02:41.498Z,11.50
2019-04-03T15:05:10.802Z,11.40
2019-04-03T15:07:40.409Z,11.50
2019-04-03T15:10:09.678Z,11.40
2019-04-03T15:12:39.932Z,11.50
2019-04-03T15:15:09.733Z,11.50
2019-04-03T15:17:38.908Z,11.40
2019-04-03T15:20:10.481Z,11.20
2019-04-03T15:22:39.441Z,11.30
2019-04-03T15:25:09.092Z,11.30
2019-04-03T15:27:38.102Z,11.30
2019-04-03T15:30:10.049Z,11.20
2019-04-03T15:32:38.575Z,11.10
2019-04-03T15:35:08.062Z,11.00
2019-04-03T15:37:40.075Z,11.00
2019-04-03T15:40:07.336Z,10.90
2019-04-03T15:42:38.467Z,10.90
2019-04-03T15:45:07.937Z,10.80
2019-04-03T15:47:39.126Z,10.80
2019-04-03T15:50:08.427Z,10.80
2019-04-03T15:52:37.140Z,10.70
2019-04-03T15:55:08.534Z,10.70
2019-04-03T15:57:39.577Z,10.80
2019-04-03T16:00:13.684Z,10.70
2019-04-03T16:02:45.950Z,10.60
2019-04-03T16:05:13.485Z,10.60
2019-04-03T16:07:42.707Z,10.60
2019-04-03T16:10:11.955Z,10.60
2019-04-03T16:12:42.835Z,10.40
2019-04-03T16:15:10.737Z,10.30
2019-04-03T16:17:39.822Z,10.20
2019-04-03T16:20:09.117Z,10.10
2019-04-03T16:22:38.084Z,10.10
2019-04-03T16:25:08.057Z,10.10
2019-04-03T16:27:36.647Z,10.00
2019-04-03T16:30:08.400Z,9.80
2019-04-03T16:32:37.096Z,9.80
2019-04-03T16:35:07.761Z,9.80
2019-04-03T16:37:36.603Z,9.70
2019-04-03T16:40:07.296Z,9.60
2019-04-03T16:42:35.801Z,9.60
2019-04-03T16:45:09.548Z,9.60
2019-04-03T16:47:38.035Z,9.60
2019-04-03T16:50:08.923Z,9.50
2019-04-03T16:52:38.128Z,9.50
2019-04-03T16:55:08.011Z,9.50
2019-04-03T16:57:37.066Z,9.40
2019-04-03T17:00:10.169Z,9.40
2019-04-03T17:02:38.935Z,9.40
2019-04-03T17:05:10.325Z,9.50
2019-04-03T17:07:38.539Z,9.50
2019-04-03T17:10:09.445Z,9.40
2019-04-03T17:12:38.008Z,9.30
2019-04-03T17:15:08.679Z,9.20
2019-04-03T17:17:37.627Z,9.20
2019-04-03T17:20:07.958Z,9.10
2019-04-03T17:22:39.417Z,9.10
2019-04-03T17:25:07.958Z,9.00
2019-04-03T17:27:36.415Z,8.90
2019-04-03T17:30:08.794Z,8.90
2019-04-03T17:32:37.656Z,8.90
2019-04-03T17:35:08.766Z,8.90
2019-04-03T17:37:37.396Z,8.90
2019-04-03T17:40:08.969Z,8.90
2019-04-03T17:42:39.457Z,8.80
2019-04-03T17:45:16.275Z,8.80
2019-04-03T17:47:45.036Z,8.80
2019-04-03T17:50:14.400Z,8.80
2019-04-03T17:52:42.843Z,8.70
2019-04-03T17:55:11.713Z,8.70
2019-04-03T17:57:40.252Z,8.70
2019-04-03T18:00:14.260Z,8.70
2019-04-03T18:02:42.858Z,8.70
2019-04-03T18:05:11.626Z,8.70
2019-04-03T18:07:40.210Z,8.60
2019-04-03T18:10:12.764Z,8.70
2019-04-03T18:12:40.158Z,8.60
2019-04-03T18:15:09.935Z,8.60
2019-04-03T18:17:38.632Z,8.60
2019-04-03T18:20:12.517Z,8.70
2019-04-03T18:22:39.410Z,8.60
2019-04-03T18:25:08.682Z,8.60
2019-04-03T18:27:37.317Z,8.60
2019-04-03T18:30:11.165Z,8.60
2019-04-03T18:32:37.996Z,8.60
2019-04-03T18:35:07.461Z,8.50
2019-04-03T18:37:35.916Z,8.50
2019-04-03T18:40:06.307Z,8.50
2019-04-03T18:42:34.964Z,8.40
2019-04-03T18:45:05.358Z,8.50
2019-04-03T18:47:41.290Z,8.50
2019-04-03T18:50:05.373Z,8.50
2019-04-03T18:52:33.910Z,8.50
2019-04-03T18:55:02.591Z,8.50
2019-04-03T18:57:31.060Z,8.50
2019-04-03T19:00:00.676Z,8.50
2019-04-03T19:02:29.303Z,8.50
2019-04-03T19:05:02.315Z,8.50
2019-04-03T19:07:28.068Z,8.40
2019-04-03T19:10:06.463Z,8.40
2019-04-03T19:12:35.435Z,8.40
2019-04-03T19:14:56.899Z,8.40
2019-04-03T19:17:25.656Z,8.50
2019-04-03T19:20:03.990Z,8.40
2019-04-03T19:22:25.789Z,8.50
2019-04-03T19:24:54.619Z,8.50
2019-04-03T19:27:23.147Z,8.50
2019-04-03T19:29:51.572Z,8.50
2019-04-03T19:32:20.073Z,8.60
2019-04-03T19:34:51.854Z,8.50
2019-04-03T19:37:18.779Z,8.50
2019-04-03T19:39:47.278Z,8.50
2019-04-03T19:42:15.943Z,8.50
2019-04-03T19:44:44.388Z,8.50
2019-04-03T19:47:13.215Z,8.40
2019-04-03T19:49:41.755Z,8.30
2019-04-03T19:52:10.230Z,8.30
2019-04-03T19:54:38.794Z,8.30
2019-04-03T19:57:07.263Z,8.30
2019-04-03T19:59:35.699Z,8.30
2019-04-03T20:02:04.172Z,8.30
2019-04-03T20:04:32.613Z,8.30
2019-04-03T20:07:01.078Z,8.20
2019-04-03T20:09:31.930Z,8.20
2019-04-03T20:11:59.778Z,8.20
2019-04-03T20:14:28.298Z,8.10
2019-04-03T20:16:58.487Z,8.10
2019-04-03T20:19:27.366Z,8.10
2019-04-03T20:21:55.830Z,8.10
2019-04-03T20:24:25.337Z,8.10
2019-04-03T20:26:54.087Z,8.10
2019-04-03T20:29:22.522Z,8.00
2019-04-03T20:31:50.963Z,8.00
2019-04-03T20:34:19.439Z,8.00
2019-04-03T20:36:50.663Z,8.00
2019-04-03T20:39:18.124Z,7.90
2019-04-03T20:41:46.557Z,7.90
2019-04-03T20:44:16.930Z,7.90
2019-04-03T20:46:45.182Z,8.00
2019-04-03T20:49:13.635Z,7.90
2019-04-03T20:51:42.068Z,7.90
2019-04-03T20:54:11.899Z,7.90
2019-04-03T20:56:40.669Z,7.90
2019-04-03T20:59:11.232Z,7.90
2019-04-03T21:01:39.276Z,7.80
2019-04-03T21:04:07.749Z,7.80
2019-04-03T21:06:37.399Z,7.80
2019-04-03T21:09:07.772Z,7.80
2019-04-03T21:11:36.238Z,7.70
2019-04-03T21:14:05.713Z,7.70
2019-04-03T21:16:34.563Z,7.70
2019-04-03T21:19:03.078Z,7.70
2019-04-03T21:21:31.545Z,7.60
2019-04-03T21:24:00.064Z,7.60
2019-04-03T21:26:28.508Z,7.60
2019-04-03T21:28:56.939Z,7.60
2019-04-03T21:31:25.956Z,7.50
2019-04-03T21:33:55.684Z,7.60
2019-04-03T21:36:24.171Z,7.50
2019-04-03T21:38:52.765Z,7.50
2019-04-03T21:41:21.360Z,7.40
2019-04-03T21:43:49.944Z,7.40
2019-04-03T21:46:18.416Z,7.40
2019-04-03T21:48:46.918Z,7.40
2019-04-03T21:51:15.401Z,7.40
2019-04-03T21:53:43.907Z,7.40
2019-04-03T21:56:12.518Z,7.40
2019-04-03T21:58:40.957Z,7.40
2019-04-03T22:01:18.568Z,7.40
2019-04-03T22:03:50.549Z,7.30
2019-04-03T22:06:17.699Z,7.40
2019-04-03T22:08:46.134Z,7.30
2019-04-03T22:11:14.715Z,7.30
2019-04-03T22:13:43.171Z,7.30
2019-04-03T22:16:11.630Z,7.30
2019-04-03T22:18:40.291Z,7.30
2019-04-03T22:21:08.792Z,7.30
2019-04-03T22:23:37.315Z,7.30
2019-04-03T22:26:09.459Z,7.30
2019-04-03T22:28:37.485Z,7.30
2019-04-03T22:31:05.912Z,7.30
2019-04-03T22:33:34.368Z,7.30
2019-04-03T22:36:03.376Z,7.30
2019-04-03T22:38:32.403Z,7.20
2019-04-03T22:41:00.862Z,7.20
2019-04-03T22:43:29.407Z,7.30
2019-04-03T22:45:57.910Z,7.20
2019-04-03T22:48:27.475Z,7.20
2019-04-03T22:50:56.174Z,7.20
2019-04-03T22:53:24.649Z,7.20
2019-04-03T22:55:53.079Z,7.20
2019-04-03T22:58:21.642Z,7.30
2019-04-03T23:00:50.207Z,7.20
2019-04-03T23:03:18.737Z,7.20
2019-04-03T23:05:47.971Z,7.20
2019-04-03T23:08:18.262Z,7.20
2019-04-03T23:10:46.745Z,7.20
2019-04-03T23:13:15.207Z,7.20
2019-04-03T23:15:43.718Z,7.20
2019-04-03T23:18:12.228Z,7.20
2019-04-03T23:20:40.755Z,7.10
2019-04-03T23:23:09.282Z,7.10
2019-04-03T23:25:37.732Z,7.10
2019-04-03T23:28:06.272Z,7.00
2019-04-03T23:30:34.818Z,7.00
2019-04-03T23:33:03.389Z,6.90
2019-04-03T23:35:31.857Z,6.90
2019-04-03T23:38:00.292Z,6.90
2019-04-03T23:40:28.755Z,6.80
2019-04-03T23:42:57.203Z,6.80
2019-04-03T23:45:27.457Z,6.80
2019-04-03T23:47:55.887Z,6.80
2019-04-03T23:50:24.454Z,6.80
2019-04-03T23:52:52.895Z,6.80
2019-04-03T23:55:21.348Z,6.80
2019-04-03T23:57:49.791Z,6.80
